sensor_id;sensor_type;location;lat;lon;timestamp;pressure;altitude;pressure_sealevel;temperature;humidity
46782;BME280;32541;46.298;11.506;2023-02-20T00:01:51;90054.88;;;2.74;58.13
46782;BME280;32541;46.298;11.506;2023-02-20T00:04:18;90061.13;;;2.69;58.16
46782;BME280;32541;46.298;11.506;2023-02-20T00:06:43;90061.13;;;2.69;56.67
46782;BME280;32541;46.298;11.506;2023-02-20T00:09:09;90068.69;;;2.76;57.17
46782;BME280;32541;46.298;11.506;2023-02-20T00:11:34;90061.88;;;2.69;57.43
46782;BME280;32541;46.298;11.506;2023-02-20T00:14:00;90059.34;;;2.71;57.37
46782;BME280;32541;46.298;11.506;2023-02-20T00:16:25;90066.47;;;2.74;57.34
46782;BME280;32541;46.298;11.506;2023-02-20T00:18:50;90068.88;;;2.78;57.34
46782;BME280;32541;46.298;11.506;2023-02-20T00:21:16;90067.41;;;2.77;57.24
46782;BME280;32541;46.298;11.506;2023-02-20T00:23:41;90069.38;;;2.76;56.81
46782;BME280;32541;46.298;11.506;2023-02-20T00:26:11;90070.09;;;2.64;57.94
46782;BME280;32541;46.298;11.506;2023-02-20T00:28:40;90061.72;;;2.62;57.72
46782;BME280;32541;46.298;11.506;2023-02-20T00:31:07;90063.09;;;2.55;57.70
46782;BME280;32541;46.298;11.506;2023-02-20T00:33:33;90061.69;;;2.49;57.90
46782;BME280;32541;46.298;11.506;2023-02-20T00:35:59;90062.06;;;2.40;58.94
46782;BME280;32541;46.298;11.506;2023-02-20T00:38:24;90064.50;;;2.43;58.96
46782;BME280;32541;46.298;11.506;2023-02-20T00:40:50;90066.84;;;2.34;58.69
46782;BME280;32541;46.298;11.506;2023-02-20T00:43:15;90065.59;;;2.35;57.89
46782;BME280;32541;46.298;11.506;2023-02-20T00:45:40;90074.69;;;2.37;58.52
46782;BME280;32541;46.298;11.506;2023-02-20T00:48:06;90071.84;;;2.30;58.90
46782;BME280;32541;46.298;11.506;2023-02-20T00:50:31;90081.09;;;2.53;57.41
46782;BME280;32541;46.298;11.506;2023-02-20T00:52:57;90080.41;;;2.52;57.16
46782;BME280;32541;46.298;11.506;2023-02-20T00:55:22;90079.09;;;2.40;59.00
46782;BME280;32541;46.298;11.506;2023-02-20T00:57:47;90075.13;;;2.41;58.75
46782;BME280;32541;46.298;11.506;2023-02-20T01:00:23;90075.56;;;2.27;58.65
46782;BME280;32541;46.298;11.506;2023-02-20T01:02:49;90069.41;;;2.26;58.50
46782;BME280;32541;46.298;11.506;2023-02-20T01:05:14;90071.09;;;2.29;58.63
46782;BME280;32541;46.298;11.506;2023-02-20T01:07:40;90065.47;;;2.27;58.81
46782;BME280;32541;46.298;11.506;2023-02-20T01:10:06;90066.78;;;2.20;59.33
46782;BME280;32541;46.298;11.506;2023-02-20T01:12:32;90065.00;;;2.23;58.96
46782;BME280;32541;46.298;11.506;2023-02-20T01:14:57;90066.78;;;2.20;58.79
46782;BME280;32541;46.298;11.506;2023-02-20T01:17:22;90070.22;;;2.21;58.91
46782;BME280;32541;46.298;11.506;2023-02-20T01:19:48;90074.88;;;2.07;59.11
46782;BME280;32541;46.298;11.506;2023-02-20T01:22:13;90078.81;;;2.06;59.14
46782;BME280;32541;46.298;11.506;2023-02-20T01:24:38;90081.47;;;2.12;59.09
46782;BME280;32541;46.298;11.506;2023-02-20T01:27:05;90081.16;;;2.15;59.22
46782;BME280;32541;46.298;11.506;2023-02-20T01:29:30;90088.72;;;2.04;59.52
46782;BME280;32541;46.298;11.506;2023-02-20T01:31:55;90096.19;;;1.98;59.54
46782;BME280;32541;46.298;11.506;2023-02-20T01:34:21;90095.38;;;2.03;58.19
46782;BME280;32541;46.298;11.506;2023-02-20T01:36:48;90099.69;;;2.11;58.18
46782;BME280;32541;46.298;11.506;2023-02-20T01:39:16;90101.84;;;2.18;58.28
46782;BME280;32541;46.298;11.506;2023-02-20T01:41:41;90102.34;;;2.17;59.41
46782;BME280;32541;46.298;11.506;2023-02-20T01:44:16;90102.41;;;2.11;59.59
46782;BME280;32541;46.298;11.506;2023-02-20T01:46:45;90107.84;;;2.11;59.37
46782;BME280;32541;46.298;11.506;2023-02-20T01:49:14;90107.84;;;2.11;59.16
46782;BME280;32541;46.298;11.506;2023-02-20T01:51:44;90104.63;;;2.13;59.28
46782;BME280;32541;46.298;11.506;2023-02-20T01:54:12;90106.09;;;1.95;60.05
46782;BME280;32541;46.298;11.506;2023-02-20T01:56:39;90109.09;;;1.92;59.98
46782;BME280;32541;46.298;11.506;2023-02-20T01:59:05;90099.56;;;1.85;59.70
46782;BME280;32541;46.298;11.506;2023-02-20T02:01:32;90106.88;;;1.90;59.72
46782;BME280;32541;46.298;11.506;2023-02-20T02:04:02;90110.31;;;1.91;59.82
46782;BME280;32541;46.298;11.506;2023-02-20T02:06:29;90107.69;;;1.85;60.40
46782;BME280;32541;46.298;11.506;2023-02-20T02:08:57;90113.41;;;1.82;60.42
46782;BME280;32541;46.298;11.506;2023-02-20T02:11:27;90120.56;;;1.79;60.03
46782;BME280;32541;46.298;11.506;2023-02-20T02:13:52;90113.91;;;1.80;59.90
46782;BME280;32541;46.298;11.506;2023-02-20T02:16:39;90117.00;;;1.90;59.87
46782;BME280;32541;46.298;11.506;2023-02-20T02:27:53;90120.78;;;1.81;60.07
46782;BME280;32541;46.298;11.506;2023-02-20T02:33:20;90119.22;;;1.67;61.06
46782;BME280;32541;46.298;11.506;2023-02-20T02:41:48;90111.63;;;1.84;60.83
46782;BME280;32541;46.298;11.506;2023-02-20T02:44:37;90114.28;;;1.71;60.97
46782;BME280;32541;46.298;11.506;2023-02-20T02:47:12;90118.66;;;1.74;60.31
46782;BME280;32541;46.298;11.506;2023-02-20T02:49:54;90121.03;;;1.83;59.08
46782;BME280;32541;46.298;11.506;2023-02-20T02:52:22;90123.06;;;1.77;60.81
46782;BME280;32541;46.298;11.506;2023-02-20T02:55:15;90119.16;;;1.73;61.08
46782;BME280;32541;46.298;11.506;2023-02-20T02:57:41;90118.38;;;1.78;60.65
46782;BME280;32541;46.298;11.506;2023-02-20T03:00:16;90114.72;;;1.75;60.55
46782;BME280;32541;46.298;11.506;2023-02-20T03:06:09;90120.50;;;1.66;61.10
46782;BME280;32541;46.298;11.506;2023-02-20T03:08:42;90127.22;;;1.59;60.81
46782;BME280;32541;46.298;11.506;2023-02-20T03:11:17;90128.84;;;1.68;61.03
46782;BME280;32541;46.298;11.506;2023-02-20T03:13:45;90138.69;;;1.47;62.30
46782;BME280;32541;46.298;11.506;2023-02-20T03:16:50;90132.47;;;1.52;61.51
46782;BME280;32541;46.298;11.506;2023-02-20T03:19:24;90136.19;;;1.49;61.30
46782;BME280;32541;46.298;11.506;2023-02-20T03:21:53;90131.16;;;1.58;60.32
46782;BME280;32541;46.298;11.506;2023-02-20T03:24:21;90146.19;;;1.59;61.25
46782;BME280;32541;46.298;11.506;2023-02-20T03:26:49;90144.38;;;1.43;61.72
46782;BME280;32541;46.298;11.506;2023-02-20T03:29:22;90143.41;;;1.41;62.25
46782;BME280;32541;46.298;11.506;2023-02-20T03:32:05;90139.47;;;1.42;61.46
46782;BME280;32541;46.298;11.506;2023-02-20T03:34:51;90153.97;;;1.44;61.81
46782;BME280;32541;46.298;11.506;2023-02-20T03:37:38;90139.47;;;1.42;61.88
46782;BME280;32541;46.298;11.506;2023-02-20T03:40:25;90141.91;;;1.45;61.40
46782;BME280;32541;46.298;11.506;2023-02-20T03:43:17;90148.50;;;1.50;62.41
46782;BME280;32541;46.298;11.506;2023-02-20T03:45:52;90152.00;;;1.45;62.15
46782;BME280;32541;46.298;11.506;2023-02-20T03:50:48;90161.38;;;1.44;62.03
46782;BME280;32541;46.298;11.506;2023-02-20T03:53:32;90170.28;;;1.39;62.23
46782;BME280;32541;46.298;11.506;2023-02-20T03:56:00;90160.47;;;1.36;62.53
46782;BME280;32541;46.298;11.506;2023-02-20T03:58:28;90158.72;;;1.38;62.09
46782;BME280;32541;46.298;11.506;2023-02-20T04:00:57;90152.34;;;1.36;62.09
46782;BME280;32541;46.298;11.506;2023-02-20T04:03:29;90158.19;;;1.40;62.28
46782;BME280;32541;46.298;11.506;2023-02-20T04:05:57;90158.72;;;1.38;63.08
46782;BME280;32541;46.298;11.506;2023-02-20T04:08:31;90166.00;;;1.25;63.43
46782;BME280;32541;46.298;11.506;2023-02-20T04:13:39;90173.69;;;1.45;61.53
46782;BME280;32541;46.298;11.506;2023-02-20T04:16:05;90176.28;;;1.56;60.75
46782;BME280;32541;46.298;11.506;2023-02-20T04:18:31;90170.63;;;1.54;61.11
46782;BME280;32541;46.298;11.506;2023-02-20T04:20:59;90179.78;;;1.51;61.36
46782;BME280;32541;46.298;11.506;2023-02-20T04:23:26;90176.88;;;1.43;61.88
46782;BME280;32541;46.298;11.506;2023-02-20T04:28:27;90185.47;;;1.47;61.82
46782;BME280;32541;46.298;11.506;2023-02-20T04:30:53;90180.66;;;1.35;62.02
46782;BME280;32541;46.298;11.506;2023-02-20T04:33:19;90182.25;;;1.25;62.32
46782;BME280;32541;46.298;11.506;2023-02-20T04:35:44;90180.19;;;1.31;62.24
46782;BME280;32541;46.298;11.506;2023-02-20T04:38:10;90170.84;;;1.32;62.14
46782;BME280;32541;46.298;11.506;2023-02-20T04:40:36;90179.97;;;1.29;62.46
46782;BME280;32541;46.298;11.506;2023-02-20T04:43:02;90182.53;;;1.21;62.31
46782;BME280;32541;46.298;11.506;2023-02-20T04:45:27;90182.00;;;1.23;62.62
46782;BME280;32541;46.298;11.506;2023-02-20T04:47:53;90181.50;;;1.24;63.06
46782;BME280;32541;46.298;11.506;2023-02-20T04:50:30;90180.50;;;1.27;62.69
46782;BME280;32541;46.298;11.506;2023-02-20T04:52:56;90189.59;;;1.30;62.68
46782;BME280;32541;46.298;11.506;2023-02-20T04:55:22;90180.19;;;1.31;62.78
46782;BME280;32541;46.298;11.506;2023-02-20T04:57:48;90187.88;;;1.27;62.65
46782;BME280;32541;46.298;11.506;2023-02-20T05:00:16;90194.31;;;1.24;63.39
46782;BME280;32541;46.298;11.506;2023-02-20T05:02:42;90200.22;;;1.22;63.51
46782;BME280;32541;46.298;11.506;2023-02-20T05:05:26;90200.97;;;1.23;63.53
46782;BME280;32541;46.298;11.506;2023-02-20T05:07:58;90213.06;;;1.16;63.12
46782;BME280;32541;46.298;11.506;2023-02-20T05:10:25;90206.25;;;1.09;64.27
46782;BME280;32541;46.298;11.506;2023-02-20T05:12:51;90205.31;;;1.01;64.24
46782;BME280;32541;46.298;11.506;2023-02-20T05:15:17;90218.59;;;1.05;63.94
46782;BME280;32541;46.298;11.506;2023-02-20T05:17:43;90209.50;;;1.02;63.96
46782;BME280;32541;46.298;11.506;2023-02-20T05:20:09;90214.66;;;1.06;63.89
46782;BME280;32541;46.298;11.506;2023-02-20T05:22:34;90209.13;;;1.17;63.06
46782;BME280;32541;46.298;11.506;2023-02-20T05:25:00;90220.44;;;1.21;62.35
46782;BME280;32541;46.298;11.506;2023-02-20T05:27:26;90217.00;;;1.21;63.06
46782;BME280;32541;46.298;11.506;2023-02-20T05:29:54;90224.47;;;1.09;63.93
46782;BME280;32541;46.298;11.506;2023-02-20T05:32:21;90220.34;;;1.02;63.50
46782;BME280;32541;46.298;11.506;2023-02-20T05:34:47;90224.53;;;1.03;63.66
46782;BME280;32541;46.298;11.506;2023-02-20T05:37:14;90212.22;;;1.02;62.99
46782;BME280;32541;46.298;11.506;2023-02-20T05:39:40;90214.38;;;1.09;62.89
46782;BME280;32541;46.298;11.506;2023-02-20T05:42:06;90225.66;;;1.13;63.02
46782;BME280;32541;46.298;11.506;2023-02-20T05:44:31;90224.56;;;0.98;64.00
46782;BME280;32541;46.298;11.506;2023-02-20T05:46:57;90223.25;;;1.04;64.43
46782;BME280;32541;46.298;11.506;2023-02-20T05:49:22;90226.44;;;1.08;64.57
46782;BME280;32541;46.298;11.506;2023-02-20T05:51:48;90224.53;;;1.03;63.93
46782;BME280;32541;46.298;11.506;2023-02-20T05:54:20;90226.00;;;0.99;63.73
46782;BME280;32541;46.298;11.506;2023-02-20T05:56:46;90227.22;;;1.03;64.09
46782;BME280;32541;46.298;11.506;2023-02-20T05:59:13;90230.84;;;1.11;63.76
46782;BME280;32541;46.298;11.506;2023-02-20T06:01:41;90231.81;;;1.14;63.68
46782;BME280;32541;46.298;11.506;2023-02-20T06:04:06;90233.47;;;1.23;63.86
46782;BME280;32541;46.298;11.506;2023-02-20T06:06:33;90242.47;;;1.06;64.66
46782;BME280;32541;46.298;11.506;2023-02-20T06:09:00;90252.00;;;1.13;64.45
46782;BME280;32541;46.298;11.506;2023-02-20T06:11:25;90257.63;;;1.21;64.11
46782;BME280;32541;46.298;11.506;2023-02-20T06:13:50;90251.56;;;1.09;64.75
46782;BME280;32541;46.298;11.506;2023-02-20T06:16:27;90255.00;;;1.04;64.79
46782;BME280;32541;46.298;11.506;2023-02-20T06:18:53;90250.63;;;1.01;64.64
46782;BME280;32541;46.298;11.506;2023-02-20T06:21:19;90260.44;;;1.04;65.75
46782;BME280;32541;46.298;11.506;2023-02-20T06:23:48;90267.03;;;1.14;64.48
46782;BME280;32541;46.298;11.506;2023-02-20T06:26:15;90263.34;;;1.11;64.80
46782;BME280;32541;46.298;11.506;2023-02-20T06:28:41;90279.38;;;1.09;65.39
46782;BME280;32541;46.298;11.506;2023-02-20T06:31:07;90281.06;;;1.13;65.23
46782;BME280;32541;46.298;11.506;2023-02-20T06:33:33;90278.81;;;1.17;64.50
46782;BME280;32541;46.298;11.506;2023-02-20T06:35:58;90284.28;;;1.11;64.36
46782;BME280;32541;46.298;11.506;2023-02-20T06:38:24;90292.34;;;1.17;65.15
46782;BME280;32541;46.298;11.506;2023-02-20T06:40:50;90292.84;;;1.21;65.04
46782;BME280;32541;46.298;11.506;2023-02-20T06:43:15;90300.75;;;1.19;65.55
46782;BME280;32541;46.298;11.506;2023-02-20T06:45:41;90298.50;;;1.17;65.57
46782;BME280;32541;46.298;11.506;2023-02-20T06:48:08;90303.91;;;1.23;65.21
46782;BME280;32541;46.298;11.506;2023-02-20T06:50:36;90297.69;;;1.33;64.79
46782;BME280;32541;46.298;11.506;2023-02-20T06:53:01;90299.09;;;1.40;65.07
46782;BME280;32541;46.298;11.506;2023-02-20T06:55:27;90303.00;;;1.44;65.22
46782;BME280;32541;46.298;11.506;2023-02-20T06:57:52;90297.31;;;1.48;65.34
46782;BME280;32541;46.298;11.506;2023-02-20T07:00:18;90298.75;;;1.54;65.24
46782;BME280;32541;46.298;11.506;2023-02-20T07:02:43;90299.03;;;1.51;64.98
46782;BME280;32541;46.298;11.506;2023-02-20T07:05:10;90306.09;;;1.59;66.55
46782;BME280;32541;46.298;11.506;2023-02-20T07:07:35;90310.72;;;1.64;65.19
46782;BME280;32541;46.298;11.506;2023-02-20T07:10:00;90305.25;;;1.70;64.36
46782;BME280;32541;46.298;11.506;2023-02-20T07:12:30;90303.91;;;1.82;64.74
46782;BME280;32541;46.298;11.506;2023-02-20T07:14:56;90306.41;;;1.80;64.32
46782;BME280;32541;46.298;11.506;2023-02-20T07:17:21;90306.09;;;1.89;63.46
46782;BME280;32541;46.298;11.506;2023-02-20T07:19:47;90305.22;;;2.00;64.20
46782;BME280;32541;46.298;11.506;2023-02-20T07:22:12;90310.19;;;2.26;64.53
46782;BME280;32541;46.298;11.506;2023-02-20T07:24:38;90307.34;;;2.12;65.09
46782;BME280;32541;46.298;11.506;2023-02-20T07:27:06;90305.13;;;2.11;65.20
46782;BME280;32541;46.298;11.506;2023-02-20T07:29:31;90311.75;;;2.15;65.53
46782;BME280;32541;46.298;11.506;2023-02-20T07:31:57;90313.09;;;2.28;65.99
46782;BME280;32541;46.298;11.506;2023-02-20T07:34:22;90320.16;;;2.60;64.35
46782;BME280;32541;46.298;11.506;2023-02-20T07:36:48;90305.50;;;3.06;62.46
46782;BME280;32541;46.298;11.506;2023-02-20T07:39:13;90310.88;;;4.07;60.63
46782;BME280;32541;46.298;11.506;2023-02-20T07:41:38;90312.97;;;5.32;54.81
46782;BME280;32541;46.298;11.506;2023-02-20T07:44:05;90298.63;;;6.77;52.41
46782;BME280;32541;46.298;11.506;2023-02-20T07:46:30;90300.25;;;8.40;50.00
46782;BME280;32541;46.298;11.506;2023-02-20T07:49:02;90300.03;;;9.93;46.43
46782;BME280;32541;46.298;11.506;2023-02-20T07:51:28;90301.28;;;10.82;43.04
46782;BME280;32541;46.298;11.506;2023-02-20T07:53:53;90302.72;;;11.42;41.19
46782;BME280;32541;46.298;11.506;2023-02-20T07:56:19;90302.34;;;12.06;40.48
46782;BME280;32541;46.298;11.506;2023-02-20T07:58:46;90304.19;;;12.84;39.20
46782;BME280;32541;46.298;11.506;2023-02-20T08:01:11;90294.94;;;12.62;39.39
46782;BME280;32541;46.298;11.506;2023-02-20T08:03:38;90297.31;;;12.75;38.28
46782;BME280;32541;46.298;11.506;2023-02-20T08:06:04;90299.50;;;12.77;38.98
46782;BME280;32541;46.298;11.506;2023-02-20T08:08:29;90296.50;;;12.82;38.81
46782;BME280;32541;46.298;11.506;2023-02-20T08:10:54;90303.25;;;12.36;38.76
46782;BME280;32541;46.298;11.506;2023-02-20T08:13:20;90300.19;;;12.68;39.20
46782;BME280;32541;46.298;11.506;2023-02-20T08:15:45;90295.91;;;12.21;39.20
46782;BME280;32541;46.298;11.506;2023-02-20T08:18:12;90293.66;;;11.49;40.89
46782;BME280;32541;46.298;11.506;2023-02-20T08:20:37;90300.97;;;10.78;42.06
46782;BME280;32541;46.298;11.506;2023-02-20T08:23:03;90303.75;;;10.21;43.00
46782;BME280;32541;46.298;11.506;2023-02-20T08:25:30;90302.38;;;10.62;43.53
46782;BME280;32541;46.298;11.506;2023-02-20T08:27:57;90292.47;;;10.58;41.83
46782;BME280;32541;46.298;11.506;2023-02-20T08:30:25;90293.88;;;10.10;43.35
46782;BME280;32541;46.298;11.506;2023-02-20T08:32:53;90294.41;;;9.36;44.35
46782;BME280;32541;46.298;11.506;2023-02-20T08:35:19;90293.25;;;8.01;48.72
46782;BME280;32541;46.298;11.506;2023-02-20T08:37:45;90293.56;;;7.75;47.05
46782;BME280;32541;46.298;11.506;2023-02-20T08:40:11;90296.13;;;7.80;47.31
46782;BME280;32541;46.298;11.506;2023-02-20T08:42:37;90297.47;;;8.10;48.42
46782;BME280;32541;46.298;11.506;2023-02-20T08:45:04;90292.94;;;9.35;44.86
46782;BME280;32541;46.298;11.506;2023-02-20T08:47:32;90283.22;;;9.49;43.14
46782;BME280;32541;46.298;11.506;2023-02-20T08:49:57;90282.06;;;9.60;43.16
46782;BME280;32541;46.298;11.506;2023-02-20T08:52:23;90281.31;;;10.32;42.27
46782;BME280;32541;46.298;11.506;2023-02-20T08:54:48;90272.47;;;10.83;41.09
46782;BME280;32541;46.298;11.506;2023-02-20T08:57:15;90273.19;;;11.25;40.64
46782;BME280;32541;46.298;11.506;2023-02-20T08:59:41;90270.41;;;11.42;39.51
46782;BME280;32541;46.298;11.506;2023-02-20T09:02:14;90261.56;;;11.44;39.69
46782;BME280;32541;46.298;11.506;2023-02-20T09:04:42;90261.72;;;11.63;40.50
46782;BME280;32541;46.298;11.506;2023-02-20T09:07:08;90254.06;;;11.88;39.66
46782;BME280;32541;46.298;11.506;2023-02-20T09:09:34;90247.91;;;11.36;40.22
46782;BME280;32541;46.298;11.506;2023-02-20T09:11:59;90247.19;;;11.19;39.86
46782;BME280;32541;46.298;11.506;2023-02-20T09:14:24;90247.84;;;10.68;41.02
46782;BME280;32541;46.298;11.506;2023-02-20T09:16:53;90244.53;;;10.69;42.37
46782;BME280;32541;46.298;11.506;2023-02-20T09:19:18;90245.56;;;9.75;43.96
46782;BME280;32541;46.298;11.506;2023-02-20T09:21:46;90241.31;;;10.14;42.97
46782;BME280;32541;46.298;11.506;2023-02-20T09:24:12;90241.44;;;10.23;42.74
46782;BME280;32541;46.298;11.506;2023-02-20T09:26:37;90234.34;;;10.37;42.91
46782;BME280;32541;46.298;11.506;2023-02-20T09:29:03;90233.84;;;10.31;41.85
46782;BME280;32541;46.298;11.506;2023-02-20T09:31:28;90229.94;;;9.85;42.54
46782;BME280;32541;46.298;11.506;2023-02-20T09:33:53;90228.38;;;9.34;43.49
46782;BME280;32541;46.298;11.506;2023-02-20T09:36:19;90224.78;;;9.17;44.76
46782;BME280;32541;46.298;11.506;2023-02-20T09:38:44;90236.63;;;8.64;46.59
46782;BME280;32541;46.298;11.506;2023-02-20T09:41:28;90234.47;;;9.18;46.07
46782;BME280;32541;46.298;11.506;2023-02-20T09:44:18;90219.28;;;9.57;44.14
46782;BME280;32541;46.298;11.506;2023-02-20T09:46:47;90224.63;;;9.55;44.17
46782;BME280;32541;46.298;11.506;2023-02-20T09:49:21;90225.56;;;9.82;44.17
46782;BME280;32541;46.298;11.506;2023-02-20T09:51:59;90220.53;;;9.63;43.67
46782;BME280;32541;46.298;11.506;2023-02-20T09:54:35;90217.19;;;9.72;44.14
46782;BME280;32541;46.298;11.506;2023-02-20T09:57:05;90215.09;;;10.13;43.33
46782;BME280;32541;46.298;11.506;2023-02-20T09:59:43;90214.44;;;9.72;43.79
46782;BME280;32541;46.298;11.506;2023-02-20T10:02:15;90216.38;;;9.15;45.69
46782;BME280;32541;46.298;11.506;2023-02-20T10:04:50;90222.75;;;8.62;46.06
46782;BME280;32541;46.298;11.506;2023-02-20T10:07:25;90222.31;;;8.88;46.41
46782;BME280;32541;46.298;11.506;2023-02-20T10:09:51;90236.28;;;8.60;47.73
46782;BME280;32541;46.298;11.506;2023-02-20T10:20:45;90233.00;;;8.39;48.51
46782;BME280;32541;46.298;11.506;2023-02-20T10:26:16;90240.81;;;8.05;44.51
46782;BME280;32541;46.298;11.506;2023-02-20T10:28:47;90233.16;;;8.26;45.57
46782;BME280;32541;46.298;11.506;2023-02-20T10:31:32;90230.09;;;8.37;45.46
46782;BME280;32541;46.298;11.506;2023-02-20T10:34:10;90229.50;;;8.61;45.53
46782;BME280;32541;46.298;11.506;2023-02-20T10:36:43;90227.97;;;8.98;43.99
46782;BME280;32541;46.298;11.506;2023-02-20T10:39:16;90213.91;;;8.86;44.58
46782;BME280;32541;46.298;11.506;2023-02-20T10:44:26;90222.06;;;9.09;45.51
46782;BME280;32541;46.298;11.506;2023-02-20T10:49:41;90198.72;;;9.33;44.98
46782;BME280;32541;46.298;11.506;2023-02-20T10:52:12;90199.63;;;9.35;44.99
46782;BME280;32541;46.298;11.506;2023-02-20T10:54:49;90195.34;;;9.82;44.25
46782;BME280;32541;46.298;11.506;2023-02-20T10:57:19;90189.84;;;10.14;43.30
46782;BME280;32541;46.298;11.506;2023-02-20T11:00:08;90190.78;;;9.52;43.34
46782;BME280;32541;46.298;11.506;2023-02-20T11:02:42;90187.03;;;9.32;44.68
46782;BME280;32541;46.298;11.506;2023-02-20T11:05:20;90186.72;;;9.21;43.96
46782;BME280;32541;46.298;11.506;2023-02-20T11:07:47;90188.63;;;9.03;43.48
46782;BME280;32541;46.298;11.506;2023-02-20T11:10:13;90184.38;;;9.10;44.18
46782;BME280;32541;46.298;11.506;2023-02-20T11:12:47;90173.94;;;9.16;44.72
46782;BME280;32541;46.298;11.506;2023-02-20T11:15:17;90176.66;;;9.23;46.27
46782;BME280;32541;46.298;11.506;2023-02-20T11:17:45;90167.44;;;9.36;43.73
46782;BME280;32541;46.298;11.506;2023-02-20T11:20:48;90172.44;;;9.22;45.15
46782;BME280;32541;46.298;11.506;2023-02-20T11:26:12;90173.13;;;9.30;46.89
46782;BME280;32541;46.298;11.506;2023-02-20T11:28:39;90167.41;;;9.04;45.47
46782;BME280;32541;46.298;11.506;2023-02-20T11:31:06;90167.44;;;8.96;46.36
46782;BME280;32541;46.298;11.506;2023-02-20T11:33:33;90170.97;;;9.29;45.41
46782;BME280;32541;46.298;11.506;2023-02-20T11:36:12;90178.09;;;9.24;45.62
46782;BME280;32541;46.298;11.506;2023-02-20T11:38:39;90175.63;;;9.11;46.34
46782;BME280;32541;46.298;11.506;2023-02-20T11:43:45;90173.16;;;8.90;46.99
46782;BME280;32541;46.298;11.506;2023-02-20T11:51:35;90177.09;;;9.05;45.52
46782;BME280;32541;46.298;11.506;2023-02-20T11:54:21;90167.75;;;9.08;46.65
46782;BME280;32541;46.298;11.506;2023-02-20T12:07:34;90163.69;;;9.16;52.51
46782;BME280;32541;46.298;11.506;2023-02-20T12:12:40;90154.31;;;8.87;52.89
46782;BME280;32541;46.298;11.506;2023-02-20T12:15:14;90155.22;;;8.19;55.50
46782;BME280;32541;46.298;11.506;2023-02-20T12:17:51;90158.16;;;7.99;54.11
46782;BME280;32541;46.298;11.506;2023-02-20T12:20:24;90159.41;;;8.13;54.22
46782;BME280;32541;46.298;11.506;2023-02-20T12:23:11;90163.25;;;8.10;54.48
46782;BME280;32541;46.298;11.506;2023-02-20T12:31:25;90154.13;;;8.07;54.92
46782;BME280;32541;46.298;11.506;2023-02-20T12:34:00;90158.84;;;8.22;53.88
46782;BME280;32541;46.298;11.506;2023-02-20T12:36:35;90153.94;;;8.28;53.89
46782;BME280;32541;46.298;11.506;2023-02-20T12:42:04;90148.53;;;8.68;53.85
46782;BME280;32541;46.298;11.506;2023-02-20T12:44:56;90147.97;;;9.17;51.34
46782;BME280;32541;46.298;11.506;2023-02-20T12:47:39;90148.41;;;8.98;51.66
46782;BME280;32541;46.298;11.506;2023-02-20T12:53:44;90159.97;;;9.29;52.14
46782;BME280;32541;46.298;11.506;2023-02-20T13:01:41;90143.44;;;9.93;51.77
46782;BME280;32541;46.298;11.506;2023-02-20T13:04:46;90137.03;;;10.16;50.12
46782;BME280;32541;46.298;11.506;2023-02-20T13:07:49;90144.53;;;10.40;52.42
46782;BME280;32541;46.298;11.506;2023-02-20T13:10:26;90138.56;;;10.51;48.86
46782;BME280;32541;46.298;11.506;2023-02-20T13:12:52;90145.53;;;10.86;48.72
46782;BME280;32541;46.298;11.506;2023-02-20T13:15:53;90145.34;;;10.84;47.04
46782;BME280;32541;46.298;11.506;2023-02-20T13:20:47;90118.50;;;11.63;45.90
46782;BME280;32541;46.298;11.506;2023-02-20T13:25:44;90118.91;;;11.59;46.54
46782;BME280;32541;46.298;11.506;2023-02-20T13:30:38;90122.44;;;11.16;48.25
46782;BME280;32541;46.298;11.506;2023-02-20T13:33:27;90106.00;;;11.08;49.25
46782;BME280;32541;46.298;11.506;2023-02-20T13:35:55;90113.00;;;10.92;49.29
46782;BME280;32541;46.298;11.506;2023-02-20T13:38:23;90105.19;;;11.15;48.73
46782;BME280;32541;46.298;11.506;2023-02-20T13:43:24;90098.00;;;11.56;49.56
46782;BME280;32541;46.298;11.506;2023-02-20T13:56:14;90077.88;;;12.65;44.79
46782;BME280;32541;46.298;11.506;2023-02-20T13:58:40;90070.91;;;12.64;45.02
46782;BME280;32541;46.298;11.506;2023-02-20T14:01:06;90075.84;;;11.91;48.08
46782;BME280;32541;46.298;11.506;2023-02-20T14:03:33;90068.59;;;11.59;47.38
46782;BME280;32541;46.298;11.506;2023-02-20T14:06:16;90064.03;;;11.71;47.68
46782;BME280;32541;46.298;11.506;2023-02-20T14:08:44;90062.53;;;12.06;48.70
46782;BME280;32541;46.298;11.506;2023-02-20T14:11:15;90061.81;;;12.06;47.87
46782;BME280;32541;46.298;11.506;2023-02-20T14:13:49;90051.53;;;11.70;48.74
46782;BME280;32541;46.298;11.506;2023-02-20T14:18:59;90034.53;;;11.54;46.65
46782;BME280;32541;46.298;11.506;2023-02-20T14:21:25;90031.44;;;11.77;45.81
46782;BME280;32541;46.298;11.506;2023-02-20T14:23:52;90029.50;;;12.45;45.59
46782;BME280;32541;46.298;11.506;2023-02-20T14:28:44;90019.47;;;12.68;45.87
46782;BME280;32541;46.298;11.506;2023-02-20T14:31:34;90023.53;;;13.15;45.26
46782;BME280;32541;46.298;11.506;2023-02-20T14:34:08;90011.06;;;13.45;44.13
46782;BME280;32541;46.298;11.506;2023-02-20T14:42:00;90000.84;;;14.40;41.48
46782;BME280;32541;46.298;11.506;2023-02-20T14:44:27;90011.91;;;14.61;40.13
46782;BME280;32541;46.298;11.506;2023-02-20T14:46:57;90009.41;;;14.65;39.68
46782;BME280;32541;46.298;11.506;2023-02-20T14:49:28;90015.25;;;14.81;38.57
46782;BME280;32541;46.298;11.506;2023-02-20T14:52:11;90017.16;;;13.84;40.39
46782;BME280;32541;46.298;11.506;2023-02-20T14:54:38;90008.44;;;13.47;40.49
46782;BME280;32541;46.298;11.506;2023-02-20T14:57:04;90016.84;;;12.99;42.06
46782;BME280;32541;46.298;11.506;2023-02-20T14:59:31;90008.13;;;12.93;42.35
46782;BME280;32541;46.298;11.506;2023-02-20T15:02:23;90011.50;;;12.63;42.49
46782;BME280;32541;46.298;11.506;2023-02-20T15:07:20;90011.06;;;12.76;43.12
46782;BME280;32541;46.298;11.506;2023-02-20T15:09:49;90006.34;;;13.07;42.80
46782;BME280;32541;46.298;11.506;2023-02-20T15:12:33;90013.88;;;13.35;43.18